createdAt,value
2023-04-16T00:00:46.721Z,0.50
2023-04-16T00:03:13.558Z,0.40
2023-04-16T00:05:40.471Z,0.50
2023-04-16T00:08:07.213Z,0.40
2023-04-16T00:10:36.711Z,0.40
2023-04-16T00:13:03.531Z,0.45
2023-04-16T00:15:30.079Z,0.40
2023-04-16T00:17:57.114Z,0.63
2023-04-16T00:20:23.765Z,0.50
2023-04-16T00:22:51.392Z,0.50
2023-04-16T00:25:17.973Z,0.50
2023-04-16T00:27:44.573Z,0.70
2023-04-16T00:30:11.452Z,0.80
2023-04-16T00:32:38.229Z,0.90
2023-04-16T00:35:05.328Z,1.25
2023-04-16T00:37:32.526Z,1.00
2023-04-16T00:39:59.153Z,1.17
2023-04-16T00:42:26.155Z,0.93
2023-04-16T00:44:52.814Z,0.80
2023-04-16T00:47:21.834Z,0.80
2023-04-16T00:49:49.164Z,0.93
2023-04-16T00:52:16.021Z,1.00
2023-04-16T00:54:42.927Z,0.80
2023-04-16T00:57:10.786Z,0.70
2023-04-16T00:59:37.653Z,1.02
2023-04-16T01:02:04.893Z,0.80
2023-04-16T01:04:31.918Z,0.80
2023-04-16T01:06:58.494Z,0.85
2023-04-16T01:09:25.165Z,0.65
2023-04-16T01:11:52.331Z,0.95
2023-04-16T01:14:19.121Z,0.70
2023-04-16T01:16:45.649Z,0.60
2023-04-16T01:19:12.485Z,0.70
2023-04-16T01:21:39.075Z,0.80
2023-04-16T01:24:06.114Z,0.80
2023-04-16T01:26:33.415Z,0.80
2023-04-16T01:29:00.574Z,0.70
2023-04-16T01:31:27.321Z,0.77
2023-04-16T01:33:54.081Z,0.77
2023-04-16T01:36:20.755Z,1.02
2023-04-16T01:39:06.154Z,0.70
2023-04-16T01:41:32.792Z,0.75
2023-04-16T01:43:59.481Z,0.80
2023-04-16T01:46:32.505Z,0.77
2023-04-16T01:48:59.436Z,0.63
2023-04-16T01:51:27.633Z,0.80
2023-04-16T01:53:55.434Z,0.80
2023-04-16T01:56:22.028Z,0.70
2023-04-16T01:58:48.674Z,0.70
2023-04-16T02:01:15.409Z,0.80
2023-04-16T02:03:42.560Z,0.70
2023-04-16T02:06:09.404Z,0.70
2023-04-16T02:08:36.238Z,0.80
2023-04-16T02:11:03.011Z,1.10
2023-04-16T02:13:29.733Z,0.93
2023-04-16T02:15:56.417Z,0.93
2023-04-16T02:18:23.104Z,0.63
2023-04-16T02:20:49.976Z,0.90
2023-04-16T02:23:16.714Z,0.98
2023-04-16T02:25:45.346Z,1.23
2023-04-16T02:28:14.843Z,0.82
2023-04-16T02:30:42.309Z,0.85
2023-04-16T02:33:11.172Z,0.80
2023-04-16T02:35:39.293Z,0.80
2023-04-16T02:38:06.549Z,0.93
2023-04-16T02:40:33.276Z,0.90
2023-04-16T02:43:00.114Z,1.35
2023-04-16T02:45:26.744Z,1.13
2023-04-16T02:47:53.432Z,1.00
2023-04-16T02:50:20.088Z,0.90
2023-04-16T02:52:46.817Z,0.95
2023-04-16T02:55:13.465Z,1.00
2023-04-16T02:57:40.838Z,1.13
2023-04-16T03:00:09.090Z,1.05
2023-04-16T03:02:36.459Z,1.25
2023-04-16T03:05:04.059Z,1.13
2023-04-16T03:07:30.994Z,1.10
2023-04-16T03:09:57.758Z,1.00
2023-04-16T03:12:24.358Z,0.98
2023-04-16T03:14:52.773Z,1.20
2023-04-16T03:17:19.512Z,1.23
2023-04-16T03:19:46.278Z,1.58
2023-04-16T03:22:12.974Z,1.33
2023-04-16T03:24:39.709Z,1.30
2023-04-16T03:27:06.355Z,2.13
2023-04-16T03:29:32.968Z,2.80
2023-04-16T03:31:59.505Z,3.20
2023-04-16T03:34:26.213Z,3.10
2023-04-16T03:36:52.794Z,3.00
2023-04-16T03:39:19.550Z,2.60
2023-04-16T03:41:46.354Z,2.67
2023-04-16T03:44:13.042Z,2.00
2023-04-16T03:46:39.750Z,1.95
2023-04-16T03:49:06.361Z,2.70
2023-04-16T03:51:33.070Z,2.15
2023-04-16T03:54:00.155Z,2.38
2023-04-16T03:56:26.742Z,2.67
2023-04-16T03:58:53.250Z,2.58
2023-04-16T04:01:20.080Z,2.92
2023-04-16T04:03:46.861Z,2.22
2023-04-16T04:06:13.710Z,2.08
2023-04-16T04:08:40.494Z,2.13
2023-04-16T04:11:07.019Z,2.03
2023-04-16T04:13:33.801Z,1.70
2023-04-16T04:16:00.667Z,2.05
2023-04-16T04:18:27.352Z,1.98
2023-04-16T04:20:53.954Z,1.42
2023-04-16T04:23:20.872Z,1.55
2023-04-16T04:25:47.689Z,1.55
2023-04-16T04:28:14.400Z,2.22
2023-04-16T04:30:41.186Z,1.75
2023-04-16T04:33:07.860Z,1.40
2023-04-16T04:35:34.413Z,1.30
2023-04-16T04:38:02.549Z,1.27
2023-04-16T04:40:29.418Z,1.50
2023-04-16T04:42:56.169Z,1.48
2023-04-16T04:45:25.730Z,1.77
2023-04-16T04:47:53.173Z,2.00
2023-04-16T04:50:19.844Z,3.17
2023-04-16T04:52:46.493Z,3.00
2023-04-16T04:55:16.015Z,2.70
2023-04-16T04:57:42.851Z,2.13
2023-04-16T05:00:09.863Z,2.55
2023-04-16T05:02:36.751Z,2.28
2023-04-16T05:05:04.240Z,2.85
2023-04-16T05:07:31.392Z,2.80
2023-04-16T05:09:58.064Z,2.58
2023-04-16T05:12:24.677Z,2.10
2023-04-16T05:14:51.599Z,1.98
2023-04-16T05:17:18.303Z,2.35
2023-04-16T05:19:44.917Z,2.58
2023-04-16T05:22:12.645Z,3.30
2023-04-16T05:24:39.288Z,2.63
2023-04-16T05:27:06.553Z,3.30
2023-04-16T05:29:33.203Z,3.15
2023-04-16T05:31:59.877Z,2.85
2023-04-16T05:34:26.564Z,3.40
2023-04-16T05:36:53.240Z,2.13
2023-04-16T05:39:20.390Z,2.00
2023-04-16T05:41:47.131Z,1.70
2023-04-16T05:44:15.345Z,1.45
2023-04-16T05:46:42.090Z,3.97
2023-04-16T05:49:08.965Z,3.38
2023-04-16T05:51:36.009Z,2.80
2023-04-16T05:54:02.808Z,1.90
2023-04-16T05:56:29.620Z,2.80
2023-04-16T05:58:56.299Z,4.40
2023-04-16T06:01:22.972Z,4.28
2023-04-16T06:03:49.826Z,3.53
2023-04-16T06:06:16.509Z,2.88
2023-04-16T06:08:43.121Z,2.30
2023-04-16T06:11:09.875Z,2.58
2023-04-16T06:13:37.774Z,2.53
2023-04-16T06:16:04.771Z,1.95
2023-04-16T06:18:31.412Z,1.85
2023-04-16T06:21:01.153Z,2.33
2023-04-16T06:23:27.809Z,2.33
2023-04-16T06:25:54.674Z,2.10
2023-04-16T06:28:21.564Z,2.53
2023-04-16T06:30:48.316Z,2.38
2023-04-16T06:33:14.989Z,2.45
2023-04-16T06:36:00.052Z,2.53
2023-04-16T06:38:26.590Z,3.08
2023-04-16T06:40:53.404Z,2.10
2023-04-16T06:43:20.159Z,2.50
2023-04-16T06:45:46.766Z,2.38
2023-04-16T06:48:13.464Z,2.13
2023-04-16T06:50:42.399Z,6.70
2023-04-16T06:53:09.220Z,3.30
2023-04-16T06:55:36.001Z,2.75
2023-04-16T06:58:02.535Z,2.38
2023-04-16T07:00:29.132Z,2.50
2023-04-16T07:02:57.113Z,2.38
2023-04-16T07:05:25.585Z,1.55
2023-04-16T07:07:52.093Z,2.45
2023-04-16T07:10:18.755Z,1.63
2023-04-16T07:12:45.506Z,2.10
2023-04-16T07:15:12.254Z,1.45
2023-04-16T07:17:38.816Z,1.40
2023-04-16T07:20:06.185Z,1.40
2023-04-16T07:22:32.815Z,1.25
2023-04-16T07:24:59.672Z,1.02
2023-04-16T07:27:26.444Z,1.52
2023-04-16T07:29:53.108Z,1.05
2023-04-16T07:32:20.205Z,0.90
2023-04-16T07:34:46.954Z,0.88
2023-04-16T07:37:13.760Z,0.63
2023-04-16T07:39:40.346Z,1.40
2023-04-16T07:42:07.079Z,1.00
2023-04-16T07:44:33.709Z,0.90
2023-04-16T07:47:01.324Z,1.23
2023-04-16T07:49:28.597Z,0.90
2023-04-16T07:51:55.465Z,1.08
2023-04-16T07:54:22.017Z,1.20
2023-04-16T07:56:48.836Z,1.63
2023-04-16T07:59:23.021Z,0.98
2023-04-16T08:01:51.347Z,0.80
2023-04-16T08:04:23.474Z,0.90
2023-04-16T08:06:54.457Z,1.05
2023-04-16T08:09:22.420Z,1.45
2023-04-16T08:11:50.040Z,1.17
2023-04-16T08:14:17.242Z,1.10
2023-04-16T08:16:44.029Z,1.25
2023-04-16T08:19:11.020Z,1.58
2023-04-16T08:21:37.846Z,1.38
2023-04-16T08:24:04.497Z,1.30
2023-04-16T08:26:31.262Z,1.33
2023-04-16T08:28:58.099Z,1.05
2023-04-16T08:31:26.134Z,1.23
2023-04-16T08:33:52.760Z,1.60
2023-04-16T08:36:19.583Z,1.70
2023-04-16T08:38:46.226Z,1.10
2023-04-16T08:41:13.615Z,1.98
2023-04-16T08:43:45.329Z,1.35
2023-04-16T08:46:13.135Z,0.90
2023-04-16T08:48:43.261Z,1.00
2023-04-16T08:51:11.386Z,0.80
2023-04-16T08:53:51.851Z,0.98
2023-04-16T08:56:21.498Z,0.80
2023-04-16T08:58:50.245Z,0.60
2023-04-16T09:01:19.220Z,0.70
2023-04-16T09:03:49.292Z,0.68
2023-04-16T09:06:18.475Z,0.77
2023-04-16T09:08:46.481Z,0.88
2023-04-16T09:11:14.547Z,0.50
2023-04-16T09:13:41.273Z,0.60
2023-04-16T09:16:09.492Z,0.50
2023-04-16T09:18:36.251Z,0.60
2023-04-16T09:21:04.730Z,0.30
2023-04-16T09:23:31.861Z,0.40
2023-04-16T09:25:59.655Z,0.40
2023-04-16T09:28:41.407Z,0.40
2023-04-16T09:31:16.215Z,0.30
2023-04-16T09:33:44.799Z,0.50
2023-04-16T09:36:11.566Z,0.60
2023-04-16T09:38:52.558Z,0.60
2023-04-16T09:41:19.949Z,0.60
2023-04-16T09:43:55.449Z,0.40
2023-04-16T09:46:22.408Z,0.40
2023-04-16T09:48:49.116Z,0.50
2023-04-16T09:51:16.101Z,0.40
2023-04-16T09:53:42.768Z,0.50
2023-04-16T09:56:09.926Z,0.60
2023-04-16T09:58:37.969Z,0.82
2023-04-16T10:01:13.919Z,0.40
2023-04-16T10:03:41.235Z,0.50
2023-04-16T10:06:14.797Z,0.52
2023-04-16T10:08:50.285Z,0.50
2023-04-16T10:11:18.078Z,0.40
2023-04-16T10:13:44.859Z,0.35
2023-04-16T10:16:12.027Z,0.68
2023-04-16T10:18:43.627Z,0.50
2023-04-16T10:21:12.961Z,0.50
2023-04-16T10:23:40.592Z,0.50
2023-04-16T10:26:07.338Z,0.40
2023-04-16T10:28:35.689Z,0.47
2023-04-16T10:31:04.505Z,0.50
2023-04-16T10:33:40.798Z,0.35
2023-04-16T10:36:23.160Z,0.50
2023-04-16T10:38:51.264Z,0.40
2023-04-16T10:41:20.422Z,0.50
2023-04-16T10:43:48.724Z,0.40
2023-04-16T10:46:38.029Z,0.50
2023-04-16T10:49:19.829Z,0.60
2023-04-16T10:51:58.465Z,0.50
2023-04-16T10:54:29.032Z,0.60
2023-04-16T10:57:04.359Z,0.60
2023-04-16T10:59:34.975Z,0.50
2023-04-16T11:02:07.719Z,0.50
2023-04-16T11:04:36.978Z,0.52
2023-04-16T11:07:14.249Z,0.50
2023-04-16T11:10:02.589Z,0.43
2023-04-16T11:12:29.290Z,0.50
2023-04-16T11:15:23.628Z,0.50
2023-04-16T11:17:51.944Z,0.50
2023-04-16T11:20:23.009Z,0.50
2023-04-16T11:22:50.993Z,0.40
2023-04-16T11:25:22.165Z,0.47
2023-04-16T11:27:49.377Z,0.40
2023-04-16T11:30:17.074Z,0.40
2023-04-16T11:32:44.201Z,0.50
2023-04-16T11:35:16.659Z,0.50
2023-04-16T11:37:43.506Z,0.40
2023-04-16T11:40:10.979Z,0.50
2023-04-16T11:42:42.418Z,0.40
2023-04-16T11:45:11.065Z,0.40
2023-04-16T11:47:52.399Z,0.40
2023-04-16T11:50:22.257Z,0.40
2023-04-16T11:52:50.104Z,0.30
2023-04-16T11:55:17.361Z,0.32
2023-04-16T11:57:44.100Z,0.40
2023-04-16T12:00:14.268Z,0.45
2023-04-16T12:02:46.250Z,0.40
2023-04-16T12:05:35.429Z,0.30
2023-04-16T12:08:04.206Z,0.50
2023-04-16T12:10:35.002Z,0.30
2023-04-16T12:13:12.746Z,0.30
2023-04-16T12:15:50.714Z,0.30
2023-04-16T12:18:18.855Z,0.30
2023-04-16T12:20:46.650Z,0.38
2023-04-16T12:23:30.790Z,0.30
2023-04-16T12:26:02.793Z,0.40
2023-04-16T12:28:34.963Z,0.20
2023-04-16T12:31:03.032Z,0.40
2023-04-16T12:33:29.886Z,0.30
2023-04-16T12:35:56.484Z,0.30
2023-04-16T12:38:24.663Z,0.30
2023-04-16T12:40:52.029Z,0.30
2023-04-16T12:43:19.866Z,0.38
2023-04-16T12:45:46.771Z,0.20
2023-04-16T12:48:13.468Z,0.30
2023-04-16T12:50:40.219Z,0.30
2023-04-16T12:53:07.024Z,0.60
2023-04-16T12:55:33.748Z,0.90
2023-04-16T12:58:00.397Z,1.17
2023-04-16T13:00:27.290Z,1.10
2023-04-16T13:02:54.189Z,1.27
2023-04-16T13:05:21.082Z,1.10
2023-04-16T13:07:47.821Z,0.90
2023-04-16T13:10:14.562Z,0.70
2023-04-16T13:12:41.424Z,0.50
2023-04-16T13:15:08.701Z,0.60
2023-04-16T13:17:35.792Z,0.70
2023-04-16T13:20:02.988Z,0.82
2023-04-16T13:22:30.200Z,0.40
2023-04-16T13:24:57.155Z,0.50
2023-04-16T13:27:24.082Z,0.30
2023-04-16T13:29:50.937Z,0.30
2023-04-16T13:32:19.395Z,0.30
2023-04-16T13:34:46.166Z,0.30
2023-04-16T13:37:12.989Z,0.30
2023-04-16T13:39:40.095Z,0.35
2023-04-16T13:42:07.127Z,0.43
2023-04-16T13:44:33.905Z,0.40
2023-04-16T13:47:00.835Z,0.38
2023-04-16T13:49:27.688Z,0.40
2023-04-16T13:51:54.665Z,0.30
2023-04-16T13:54:21.580Z,0.43
2023-04-16T13:56:50.550Z,0.30
2023-04-16T13:59:17.772Z,0.30
2023-04-16T14:01:44.722Z,0.30
2023-04-16T14:04:11.497Z,0.30
2023-04-16T14:06:38.287Z,0.32
2023-04-16T14:09:04.916Z,0.30
2023-04-16T14:11:32.204Z,0.40
2023-04-16T14:13:58.927Z,0.50
2023-04-16T14:16:27.537Z,0.30
2023-04-16T14:18:54.313Z,0.30
2023-04-16T14:21:21.055Z,0.40
2023-04-16T14:23:47.728Z,0.28
2023-04-16T14:26:14.548Z,0.50
2023-04-16T14:28:41.550Z,0.40
2023-04-16T14:31:08.625Z,0.40
2023-04-16T14:33:35.464Z,0.40
2023-04-16T14:36:03.349Z,0.30
2023-04-16T14:38:30.759Z,0.32
2023-04-16T14:40:57.776Z,0.35
2023-04-16T14:43:24.429Z,0.50
2023-04-16T14:45:51.412Z,0.40
2023-04-16T14:48:18.264Z,0.30
2023-04-16T14:50:45.120Z,0.35
2023-04-16T14:53:12.500Z,0.30
2023-04-16T14:55:39.848Z,0.50
2023-04-16T14:58:07.681Z,0.40
2023-04-16T15:00:37.663Z,0.40
2023-04-16T15:03:05.570Z,0.30
2023-04-16T15:05:32.791Z,0.40
2023-04-16T15:08:00.526Z,0.30
2023-04-16T15:10:27.579Z,0.40
2023-04-16T15:12:54.582Z,0.50
2023-04-16T15:15:22.711Z,0.45
2023-04-16T15:17:51.370Z,0.50
2023-04-16T15:20:18.252Z,0.50
2023-04-16T15:22:44.930Z,0.60
2023-04-16T15:25:11.673Z,0.55
2023-04-16T15:27:38.277Z,0.50
2023-04-16T15:30:05.254Z,0.50
2023-04-16T15:32:31.937Z,0.60
2023-04-16T15:35:00.066Z,0.57
2023-04-16T15:37:27.110Z,0.70
2023-04-16T15:39:53.756Z,0.60
2023-04-16T15:42:20.854Z,0.70
2023-04-16T15:44:47.593Z,0.50
2023-04-16T15:47:14.341Z,0.50
2023-04-16T15:49:41.427Z,0.77
2023-04-16T15:52:08.454Z,0.50
2023-04-16T15:54:35.126Z,0.50
2023-04-16T15:57:01.853Z,0.50
2023-04-16T15:59:29.231Z,0.80
2023-04-16T16:01:56.343Z,0.60
2023-04-16T16:04:23.403Z,0.90
2023-04-16T16:06:50.818Z,1.13
2023-04-16T16:09:17.866Z,0.57
2023-04-16T16:11:44.951Z,0.70
2023-04-16T16:14:11.775Z,0.52
2023-04-16T16:16:39.825Z,0.60
2023-04-16T16:19:06.991Z,0.77
2023-04-16T16:21:33.793Z,0.40
2023-04-16T16:24:00.539Z,0.40
2023-04-16T16:26:29.149Z,0.50
2023-04-16T16:28:57.577Z,0.50
2023-04-16T16:31:24.598Z,0.50
2023-04-16T16:33:51.335Z,0.43
2023-04-16T16:36:18.551Z,0.82
2023-04-16T16:38:47.569Z,0.80
2023-04-16T16:41:14.728Z,0.98
2023-04-16T16:43:41.582Z,0.50
2023-04-16T16:46:09.980Z,0.60
2023-04-16T16:48:36.858Z,0.57
2023-04-16T16:51:03.666Z,0.52
2023-04-16T16:53:32.666Z,0.50
2023-04-16T16:55:59.335Z,0.40
2023-04-16T16:58:26.068Z,0.50
2023-04-16T17:00:53.101Z,0.60
2023-04-16T17:03:19.919Z,0.40
2023-04-16T17:05:46.503Z,0.70
2023-04-16T17:08:14.182Z,0.70
2023-04-16T17:10:41.277Z,0.50
2023-04-16T17:13:07.973Z,0.50
2023-04-16T17:15:35.065Z,0.50
2023-04-16T17:18:02.014Z,0.60
2023-04-16T17:20:29.431Z,0.50
2023-04-16T17:22:56.076Z,0.40
2023-04-16T17:25:22.681Z,0.47
2023-04-16T17:27:49.369Z,0.40
2023-04-16T17:30:16.495Z,0.47
2023-04-16T17:32:43.334Z,0.40
2023-04-16T17:35:10.408Z,0.50
2023-04-16T17:37:37.487Z,0.75
2023-04-16T17:40:07.400Z,0.60
2023-04-16T17:42:37.300Z,0.60
2023-04-16T17:45:04.231Z,0.68
2023-04-16T17:47:31.088Z,0.60
2023-04-16T17:49:57.831Z,0.50
2023-04-16T17:52:26.215Z,0.75
2023-04-16T17:55:00.284Z,0.60
2023-04-16T17:57:31.132Z,0.52
2023-04-16T17:59:58.189Z,0.50
2023-04-16T18:02:25.025Z,0.40
2023-04-16T18:04:51.999Z,0.50
2023-04-16T18:07:19.390Z,0.60
2023-04-16T18:09:46.033Z,0.40
2023-04-16T18:12:12.662Z,0.47
2023-04-16T18:14:40.777Z,0.60
2023-04-16T18:17:07.476Z,0.70
2023-04-16T18:19:35.566Z,0.60
2023-04-16T18:22:02.482Z,0.70
2023-04-16T18:24:29.466Z,0.70
2023-04-16T18:26:56.804Z,0.70
2023-04-16T18:29:25.230Z,0.60
2023-04-16T18:31:55.442Z,0.40
2023-04-16T18:34:25.560Z,0.70
2023-04-16T18:36:52.638Z,0.85
2023-04-16T18:39:19.775Z,0.40
2023-04-16T18:41:48.156Z,0.40
2023-04-16T18:44:16.107Z,0.70
2023-04-16T18:46:42.742Z,1.00
2023-04-16T18:49:09.693Z,1.30
2023-04-16T18:51:36.444Z,0.90
2023-04-16T18:54:03.420Z,0.52
2023-04-16T18:56:31.198Z,0.50
2023-04-16T18:58:58.205Z,0.60
2023-04-16T19:01:25.311Z,0.60
2023-04-16T19:03:52.113Z,0.60
2023-04-16T19:06:18.791Z,0.60
2023-04-16T19:08:45.441Z,0.90
2023-04-16T19:11:12.170Z,1.30
2023-04-16T19:13:39.359Z,1.30
2023-04-16T19:16:11.186Z,2.10
2023-04-16T19:18:38.673Z,2.50
2023-04-16T19:21:07.515Z,2.65
2023-04-16T19:23:34.150Z,2.40
2023-04-16T19:26:01.856Z,2.67
2023-04-16T19:28:28.790Z,2.08
2023-04-16T19:30:56.429Z,2.42
2023-04-16T19:33:23.120Z,1.88
2023-04-16T19:35:49.813Z,1.95
2023-04-16T19:38:16.467Z,1.52
2023-04-16T19:40:46.913Z,1.65
2023-04-16T19:43:14.124Z,0.90
2023-04-16T19:45:45.022Z,1.30
2023-04-16T19:48:12.313Z,1.63
2023-04-16T19:50:40.892Z,1.88
2023-04-16T19:53:08.811Z,2.92
2023-04-16T19:55:35.573Z,3.28
2023-04-16T19:58:06.358Z,3.78
2023-04-16T20:00:34.662Z,4.30
2023-04-16T20:03:01.431Z,4.53
2023-04-16T20:05:28.628Z,4.10
2023-04-16T20:07:56.104Z,3.88
2023-04-16T20:10:24.253Z,3.78
2023-04-16T20:12:51.019Z,4.78
2023-04-16T20:15:18.228Z,4.75
2023-04-16T20:17:45.194Z,4.20
2023-04-16T20:20:12.768Z,4.53
2023-04-16T20:22:40.431Z,4.45
2023-04-16T20:25:08.964Z,2.70
2023-04-16T20:27:35.872Z,3.50
2023-04-16T20:30:03.451Z,4.63
2023-04-16T20:32:30.214Z,3.35
2023-04-16T20:34:57.232Z,2.60
2023-04-16T20:37:24.499Z,3.85
2023-04-16T20:39:54.128Z,4.82
2023-04-16T20:42:22.429Z,5.18
2023-04-16T20:44:56.516Z,5.13
2023-04-16T20:47:23.959Z,7.68
2023-04-16T20:49:53.156Z,10.18
2023-04-16T20:52:19.931Z,11.23
2023-04-16T20:54:47.444Z,9.57
2023-04-16T20:57:14.178Z,9.43
2023-04-16T20:59:41.029Z,7.00
2023-04-16T21:02:08.030Z,7.82
2023-04-16T21:04:35.064Z,7.85
2023-04-16T21:07:04.290Z,8.07
2023-04-16T21:09:31.602Z,8.27
2023-04-16T21:11:58.430Z,7.65
2023-04-16T21:14:25.234Z,7.32
2023-04-16T21:16:52.084Z,3.03
2023-04-16T21:19:18.921Z,2.75
2023-04-16T21:21:45.669Z,3.13
2023-04-16T21:24:12.335Z,4.20
2023-04-16T21:26:39.254Z,4.93
2023-04-16T21:29:06.174Z,5.72
2023-04-16T21:31:33.269Z,6.30
2023-04-16T21:34:00.325Z,6.85
2023-04-16T21:36:28.121Z,4.43
2023-04-16T21:38:55.068Z,1.50
2023-04-16T21:41:21.844Z,2.00
2023-04-16T21:43:48.961Z,1.42
2023-04-16T21:46:15.725Z,1.50
2023-04-16T21:48:42.641Z,1.90
2023-04-16T21:51:10.477Z,2.42
2023-04-16T21:53:38.905Z,2.08
2023-04-16T21:56:06.875Z,2.30
2023-04-16T21:58:33.445Z,2.08
2023-04-16T22:01:00.326Z,2.30
2023-04-16T22:03:28.163Z,2.70
2023-04-16T22:06:01.331Z,2.70
2023-04-16T22:08:29.222Z,2.25
2023-04-16T22:11:00.056Z,2.90
2023-04-16T22:13:27.030Z,2.88
2023-04-16T22:15:55.268Z,3.20
2023-04-16T22:18:25.830Z,2.78
2023-04-16T22:20:56.453Z,3.00
2023-04-16T22:23:23.822Z,3.25
2023-04-16T22:25:51.979Z,2.90
2023-04-16T22:28:18.622Z,2.80
2023-04-16T22:30:45.328Z,2.70
2023-04-16T22:33:11.927Z,2.58
2023-04-16T22:35:38.689Z,2.97
2023-04-16T22:38:05.644Z,2.45
2023-04-16T22:40:32.247Z,3.17
2023-04-16T22:42:59.023Z,3.22
2023-04-16T22:45:26.316Z,3.50
2023-04-16T22:47:53.255Z,2.83
2023-04-16T22:50:22.677Z,3.05
2023-04-16T22:52:49.282Z,3.15
2023-04-16T22:55:16.234Z,2.88
2023-04-16T22:57:42.768Z,3.22
2023-04-16T23:00:15.850Z,3.38
2023-04-16T23:02:43.185Z,3.58
2023-04-16T23:05:10.489Z,3.25
2023-04-16T23:07:38.152Z,3.63
2023-04-16T23:10:05.229Z,3.70
2023-04-16T23:12:31.856Z,3.75
2023-04-16T23:15:00.803Z,3.95
2023-04-16T23:17:28.449Z,3.97
2023-04-16T23:19:55.052Z,4.13
2023-04-16T23:22:21.752Z,4.47
2023-04-16T23:24:48.776Z,4.40
2023-04-16T23:27:15.690Z,5.18
2023-04-16T23:29:42.542Z,5.55
2023-04-16T23:32:09.579Z,4.78
2023-04-16T23:34:36.236Z,5.38
2023-04-16T23:37:02.922Z,5.20
2023-04-16T23:39:29.552Z,5.15
2023-04-16T23:41:57.672Z,5.63
2023-04-16T23:44:24.427Z,5.32
2023-04-16T23:46:51.301Z,5.97
2023-04-16T23:49:18.048Z,5.50
2023-04-16T23:51:45.031Z,5.13
2023-04-16T23:54:11.714Z,5.07
2023-04-16T23:56:38.316Z,5.30
2023-04-16T23:59:05.647Z,5.72
